Comandante Luis Piedra Buena, Argentina
Current Conditions -  °F | °C
As of 11:00 AM on Saturday 22 Nov 2014 (Local Time) from SAWG Reporting Station
Broken Clouds Broken Clouds  
Wind Chill: 54°   Ceiling: 8000
Heat Index: 54°   Visibility: 6mi
Dew Point: 46°   Wind: 21mph
Humidity: 77%   Direction: 20°NNE
Pressure: 29.44"   Gusts: NA
Location:  49.98°S, 68.9°W
Report Text: SAWG 221400Z 02018KT 9999 FEW020 BKN08012/08 Q0997
Loading
Personal Weather Stations






























Interactive Weather Map New forecast layout! Learn more

10-Day Weather Forecast

Advertisements
Track Severe Weather on mobile